Main page
METAR-TAF:

METAR-TAF

Airports :

London Southend Airport

London-Southend, England

latitude: 51-34N, longitude: 000-42E, elevation: 15 m

Current weather observation

The report was made 23 minutes ago, at 21:50 UTC
Wind 3 kt from the North/Northwest
Temperature 0°C
Humidity 93%
Pressure 997 hPa
Visibility: 7000 m
Broken clouds at a height of 1600 ft

METAR: EGMC 222150Z 34003KT 7000 BKN016 00/M01 Q0997

Time: 22:13 (22:13 UTC)

Forecast

The report was made 2 hours and 12 minutes ago, at 20:01 UTC
Forecast valid from 22 at 21 UTC to 23 at 06 UTC
Wind 6 kt from the South/Southwest
Visibility 10 km or more
Few clouds at a height of 2000 ft
Probability 30% :
Temporary
from 22 at 21 UTC to 22 at 24 UTC
Visibility: 3000 m
Broken clouds at a height of 500 ft
rain showers, light rain showers, snow
Temporary
from 23 at 00 UTC to 23 at 06 UTC
Broken clouds at a height of 800 ft

TAF: EGMC 222001Z 2221/2306 21006KT 9999 FEW020 PROB30 TEMPO 2221/2224 3000 SHRA -SHRASN BKN005 TEMPO 2300/2306 BKN008

Weather observations and forecasts of more than 4000 airports (METAR and TAF reports).

The available stations are represented by yellow and red dots on the map.

Hover mouse over dot to see the name of the station.

Then click to see weather observations and forecasts.

To change the map : click on the green buttons with a black cross to zoom in, on the green button with a dash to zoom out, or on the green arrows for adjacent maps.


METAR-TAF: